aviador You're here:

CYHU Decoded Metar

MONTREAL in QC, CANADA
Report Time2018-05-20 19:00:00
UTC Time2018-05-20 19:44:49
Flight Rules vfr VFR
Wind010° at 11 Gusting to 16 kt
W.Decomp.*RWY 06: 9.1 kt HW 6.2 kt LCW
RWY 10: 3.0 kt HW 10.6 kt LCW
W.Rank010° ranks 10
Current wind is above 010° avg. (7.4)
Visibility9999 m
Phenomena:N/A
Clouds:N/A
Expected CloudBase > 4,000 ft AGL from Temp-Dew spread
CeilingNone
Temp19°C (ISA +4)
Dew Point09°C (52% RH)
AAT14.8°C
QNH1014 hPa
Density Alt702 ft
Elevation89 ft
Report Wrong Elevation
Raw Report
CYHU 201900Z AUTO 01011G16KT 280V040 9SM CLR 19/09 A2994 RMK
SLP141 DENSITY ALT 500FT=

Extra information for CYHU:More info

Metar Taf Metar & Taf Last 4 Metars F.Rules Stats Wind Profile Meteogram Temp Stats Airport Information Weather charts Add Link Nearby VenuesMetar ALERT Operation Metar Decoded Social comments